Terminal Aerodrome Forecast
Issued by NWS

Home | Current Version | Previous Version | Graphics & Text | Print | Product List | Glossary On
Versions: 1 2 3 4 5 6 7 8 9 10 11 12 13 14 15 16 17 18 19 20 21 22 23 24 25 26 27 28 29 30 31 32 33 34 35 36 37 38 39 40 41 42 43 44 45 46 47
000
FTUS43 KGRB 221400 AAA
TAFRHI
TAF AMD
KRHI 221402Z 2214/2312 06005KT 2SM HZ SCT002 OVC012
      TEMPO 2214/2216 1SM BR BKN002
     FM221600 12005KT 6SM HZ OVC012
     FM221800 12004KT 6SM HZ OVC020
     FM222200 VRB03KT 6SM HZ BKN015 BKN030
     FM230200 VRB03KT 4SM BR BKN015
     FM230400 VRB03KT 1SM BR OVC007
     FM230700 VRB03KT 1/2SM FG VV004=

USA.gov is the U.S. government's official web portal to all federal, state and local government web resources and services.